samedi 7 octobre 2017

Course aux Flambeaux - 500m- Couvin


COURSE AUX FLAMBEAUX
  19:29:54 101 classés 0,500 km
POS DOS SEXE NOM CLUB TEMPS VIT MOY CAT PL. PTS
1 1200 CALLENS MATHIS 00:01:26 20,930 02:52 BEN H 1 1000
2 1278 LIMOUSIN  CORENTIN LA THURE/CAP BEAURAING 00:01:26 20,929 02:52 BEN H 2 1000
3 1291 BLEQUIT ALEX JTRR  00:01:29 20,223 02:58 BEN H 3 966
4 1290 BAÏOLET LOUIS JACO 00:01:31 19,779 03:02 BEN H 4 945
5 1275 LAMBERT NICOLAS ACCO 00:01:32 19,564 03:04 BEN H 5 935
6 1260 PESTIAUX BRIEUC PEARTEAM 00:01:33 19,354 03:06 BEN H 6 925
7 1217 F DROMELET  CLÉMENCE A.R. JEAN REY PRIMAIRE 00:01:35 18,946 03:10 BEN F 1 905
8 1243 RIFFLART NOA A.R. JEAN REY PRIMAIRE 00:01:41 17,821 03:22 BEN H 7 851
9 504 MEUNIER ADRIEN 00:01:42 17,646 03:24 BEN H 8 843
10 1267 BESSON THEO JTRR 00:01:43 17,475 03:26 BEN H 9 835
11 1287 F BLEQUIT LAURE JTRR  00:01:46 16,980 03:32 BEN F 2 811
12 522 FERNANDES UGO 00:01:50 16,363 03:40 BEN H 10 782
13 1297 OUJOUD MEHDI ACCO 00:01:51 16,215 03:42 BEN H 11 775
14 1238 NOEL  SIMON A.R. JEAN REY PRIMAIRE 00:01:52 16,071 03:44 BEN H 12 768
15 523 FERNANDES THIAGO 00:01:52 16,071 03:44 BEN H 13 768
16 512 VLEEGELS TIMI 00:01:53 15,928 03:46 BEN H 14 761
17 1225 F GALLOIS  PAULA AC-FRONTIERES 00:01:54 15,789 03:48 BEN F 3 754
18 1219 DUBUC HUGO A.R. JEAN REY PRIMAIRE 00:01:54 15,789 03:48 BEN H 15 754
19 510 BOUYARD NICOLAS 00:01:54 15,789 03:48 BEN H 16 754
20 1249 VAN LOO MALICK 00:01:55 15,651 03:50 BEN H 17 748
21 1276 LECLERCQ LÉON TRAILERS DES FAGNES 00:01:55 15,651 03:50 BEN H 18 748
22 1218 DUBUC ALEXIS A.R. JEAN REY PRIMAIRE 00:01:56 15,516 03:52 BEN H 19 741
23 1284 PINOT HUGO TRAILERS DES FAGNES 00:01:56 15,516 03:52 BEN H 20 741
24 524 F CABARAUX EMY 00:01:57 15,384 03:54 BEN F 4 735
25 1240 PASQUASY EMILE ACCO 00:01:57 15,384 03:54 BEN H 21 735
26 1261 PESTIAUX GUY-PIERRE PEARTEAM 00:01:57 15,384 03:54 BEN H 22 735
27 1196 F BELDI DALILA A.R. JEAN REY PRIMAIRE 00:01:58 15,254 03:56 BEN F 5 729
28 1257 F WULLAERT LAUREEN A.R. JEAN REY PRIMAIRE 00:01:58 15,254 03:56 BEN F 6 729
29 1199 CALLENS JULES ACCO 00:01:58 15,253 03:56 BEN H 23 729
30 1255 WODON AARON A.R. JEAN REY PRIMAIRE 00:01:58 15,253 03:56 BEN H 24 729
31 1285 RIFFLART  NATHAN 00:01:59 15,125 03:58 BEN H 25 723
32 1216 F DEWEVER  IRIS ACCO 00:01:59 15,125 03:58 BEN F 7 723
33 1299 F BAÏOLET ZOÉ JACO 00:01:59 15,125 03:58 BEN F 8 723
34 516 F DELGRANCHE NEEL 00:01:59 15,125 03:58 BEN F 9 723
35 1207 COUTURE  BRYAN A.R. JEAN REY PRIMAIRE 00:01:59 15,125 03:58 BEN H 26 723
36 1283 F WULLAERT ELINE TDF-JTRR 00:02:00 14,999 04:00 BEN F 10 717
37 503 BOLLE TIMEO JTRR 00:02:00 14,999 04:00 BEN H 27 717
38 1245 F THIRION KELLYA A.R. JEAN REY PRIMAIRE 00:02:01 14,875 04:02 BEN F 11 711
39 1230 JACQUES LUIS ACCO 00:02:02 14,753 04:04 BEN H 28 705
40 1294 POUCET  VALENTIN ACCO 00:02:03 14,634 04:06 BEN H 29 699
41 1195 F BAIOLET NINON ACCO 00:02:04 14,516 04:08 BEN F 12 694
42 1194 F ARABAT ZOHRA A.R. JEAN REY PRIMAIRE 00:02:05 14,399 04:10 BEN F 13 688
43 1277 F LECLERCQ LOUISE TRAILERS DES FAGNES 00:02:05 14,399 04:10 BEN F 14 688
44 1239 F PASQUASY ANNA ACCO 00:02:06 14,285 04:12 BEN F 15 683
45 1262 F PESTIAUX LORRAINE PEARTEAM 00:02:08 14,062 04:16 BEN F 16 672
46 1274 F JACQUES  JULIA TRAILERS DES FAGNES 00:02:08 14,062 04:16 BEN F 17 672
47 1280 F MOBIAN  MAÏWENN ROCROY SPORTS NATURE 00:02:09 13,953 04:18 BEN F 18 667
48 1292 F LEJEUNE ADELIN JACO 00:02:11 13,740 04:22 BEN F 19 656
49 1293 POUCET  QUENTIN ACCO 00:02:12 13,636 04:24 BEN H 30 651
50 1232 LARZILLIÈRE DANTE A.R. JEAN REY PRIMAIRE 00:02:12 13,636 04:24 BEN H 31 651
51 1229 F ILERI NEVA BELFIUS 00:02:13 13,533 04:26 BEN F 20 647
52 1253 F VIGNAS  AURORE A.R. JEAN REY PRIMAIRE 00:02:13 13,533 04:26 BEN F 21 647
53 1228 F ILERI LEYNA BELFIUS 00:02:14 13,432 04:28 BEN F 22 642
54 1247 THOMAS ANTOINE A.R. JEAN REY PRIMAIRE 00:02:14 13,432 04:28 BEN H 32 642
55 1298 BARBENÇON  VINCENT TRAILERS DES FAGNES 00:02:15 13,333 04:30 BEN H 33 637
56 511 F AURAGH SAMIRA 00:02:17 13,138 04:34 BEN F 23 628
57 1288 WULLAERT THIBAUT TDF-JTRR 00:02:17 13,138 04:34 BEN H 34 628
58 1266 F BESSON ELISE JTRR 00:02:18 13,043 04:36 BEN F 24 623
59 1224 F FORTEMPS ELIZABETH ACCO 00:02:19 12,949 04:38 BEN F 25 619
60 1281 F NICOLAS EVA 00:02:19 12,949 04:38 BEN F 26 619
61 1296 POUCET ADAM ACCO 00:02:20 12,857 04:40 BEN H 35 614
62 1235 MASSON  LOIC A.R. JEAN REY PRIMAIRE 00:02:21 12,765 04:42 BEN H 36 610
63 509 MICHE ANTOINE 00:02:21 12,765 04:42 BEN H 37 610
64 1286 BLEQUIT DYLAN  JTRR 00:02:22 12,675 04:44 BEN H 38 606
65 515 POUCET BRANDON 00:02:22 12,675 04:44 BEN H 39 606
66 514 F LERNOUT THAIS 00:02:22 12,675 04:44 BEN F 27 606
67 1220 F DUMONT FANFAN 00:02:25 12,413 04:50 BEN F 28 593
68 1244 F SERVAIS HAJAR A.R. JEAN REY PRIMAIRE 00:02:26 12,328 04:52 BEN F 29 589
69 1205 F CITOZI LÉA A.R. JEAN REY PRIMAIRE 00:02:27 12,244 04:54 BEN F 30 585
70 1248 THOME MATIS BELFIUS 00:02:28 12,162 04:56 BEN H 40 581
71 1221 F DUTRANOIT LÉNA A.R. JEAN REY PRIMAIRE 00:02:29 12,080 04:58 BEN F 31 577
72 1241 F PENASSE MANON A.R. JEAN REY PRIMAIRE 00:02:30 12,000 05:00 BEN F 32 573
73 1203 CHOEL  ETHAN A.R. JEAN REY PRIMAIRE 00:02:30 11,999 05:00 BEN H 41 573
74 1206 CORNELIS BRYAN A.R. JEAN REY PRIMAIRE 00:02:31 11,920 05:02 BEN H 42 570
75 1259 F BAULOYE   INÈS TRAILERS DES FAGNES 00:02:34 11,688 05:08 BEN F 33 558
76 1211 F DECREME CLEA ACCO 00:02:34 11,688 05:08 BEN F 34 558
77 1222 F DUTRANOIT NHYLIA A.R. JEAN REY PRIMAIRE 00:02:36 11,538 05:12 BEN F 35 551
78 1209 F CRUCIFIX  EMMA 00:02:46 10,843 05:32 BEN F 36 518
79 1246 F THIRION MICHELLE A.R. JEAN REY PRIMAIRE 00:02:48 10,714 05:36 BEN F 37 512
80 1233 F LUCAS NAOMIE A.R. JEAN REY PRIMAIRE 00:02:49 10,651 05:38 BEN F 38 509
81 1234 F LUCAS NOËLLINE A.R. JEAN REY PRIMAIRE 00:02:49 10,651 05:38 BEN F 39 509
82 506 MAUDOUX TOM 00:02:52 10,465 05:44 BEN H 43 500
83 1289 FORTEMPS  MANOE TRAILERS DES FAGNES 00:02:54 10,345 05:48 BEN H 44 494
84 1226 F GAUTIER JANELLE A.R. JEAN REY PRIMAIRE 00:02:54 10,345 05:48 BEN F 40 494
85 1201 CAMBY AARON A.R. JEAN REY PRIMAIRE 00:02:55 10,285 05:50 BEN H 45 491
86 1213 DELPIRE LUCA A.R. JEAN REY PRIMAIRE 00:02:55 10,285 05:50 BEN H 46 491
87 1197 BONAVENTURE NAËL A.R. JEAN REY PRIMAIRE 00:02:57 10,169 05:54 BEN H 47 486
88 508 LUCAS DAEVON 00:02:59 10,055 05:58 BEN H 48 480
89 1251 F VANDERHEYDEN LOUISE A.R. JEAN REY PRIMAIRE 00:03:01 9,944 06:02 BEN F 41 475
90 1193 F ARABAT LILA A.R. JEAN REY PRIMAIRE 00:03:03 9,836 06:06 BEN F 42 470
91 1227 GAUTIER MAÉ A.R. JEAN REY PRIMAIRE 00:03:04 9,782 06:08 BEN H 49 467
92 1204 F CHOEL  LAIÉNA A.R. JEAN REY PRIMAIRE 00:03:06 9,677 06:12 BEN F 43 462
93 1250 F VAN LOO MARINE 00:03:06 9,677 06:12 BEN F 44 462
94 518 F DUBUC ELEONORD 00:03:08 9,574 06:16 BEN F 45 457
95 1198 F BRIQUET MIA A.R. JEAN REY PRIMAIRE 00:03:09 9,524 06:18 BEN F 46 455
96 517 F DELVALLED JVY 00:03:09 9,524 06:18 BEN F 47 455
97 1242 F PILATO LOUNA KIN ET SPORT 00:03:22 8,911 06:44 BEN F 48 426
98 1237 NICOLAS ESTEBAN A.R. JEAN REY PRIMAIRE 00:03:28 8,654 06:56 BEN H 50 413
99 513 F THOME LOUISE 00:03:32 8,490 07:04 BEN F 49 406
100 1252 VIGNAS  ALEXY A.R. JEAN REY PRIMAIRE 00:04:05 7,347 08:10 BEN H 51 351
101 1236 F NICOLAS CAPUCINE A.R. JEAN REY PRIMAIRE 00:04:09 7,229 08:18 BEN F 50 345